createdAt,value
2022-08-02T00:01:41.984Z,43.17
2022-08-02T00:04:10.070Z,42.91
2022-08-02T00:06:38.128Z,43.48
2022-08-02T00:09:06.045Z,43.99
2022-08-02T00:23:18.266Z,44.17
2022-08-02T00:25:54.565Z,44.56
2022-08-02T00:28:28.012Z,44.15
2022-08-02T00:30:59.504Z,44.08
2022-08-02T00:34:26.872Z,44.09
2022-08-02T00:36:15.901Z,44.00
2022-08-02T00:38:43.882Z,44.21
2022-08-02T00:41:16.658Z,44.05
2022-08-02T00:43:45.214Z,43.85
2022-08-02T00:46:13.542Z,43.90
2022-08-02T00:48:43.225Z,44.17
2022-08-02T00:51:12.102Z,44.19
2022-08-02T00:53:39.854Z,44.48
2022-08-02T00:56:07.887Z,44.61
2022-08-02T00:58:35.827Z,44.63
2022-08-02T01:01:03.650Z,44.79
2022-08-02T01:03:31.290Z,44.78
2022-08-02T01:06:10.944Z,44.82
2022-08-02T01:08:39.969Z,44.77
2022-08-02T01:11:08.160Z,44.68
2022-08-02T01:13:35.769Z,44.44
2022-08-02T01:16:11.939Z,44.19
2022-08-02T01:18:42.194Z,44.61
2022-08-02T01:21:47.224Z,45.25
2022-08-02T01:24:23.970Z,45.44
2022-08-02T01:27:12.594Z,45.36
2022-08-02T01:29:44.009Z,45.60
2022-08-02T01:32:15.402Z,45.19
2022-08-02T01:34:55.606Z,45.26
2022-08-02T01:37:28.443Z,45.04
2022-08-02T01:39:58.410Z,44.97
2022-08-02T01:42:27.431Z,45.08
2022-08-02T01:44:55.465Z,45.40
2022-08-02T01:47:27.714Z,45.32
2022-08-02T01:49:58.237Z,45.52
2022-08-02T01:52:27.536Z,45.48
2022-08-02T01:55:03.400Z,45.50
2022-08-02T01:57:43.343Z,45.73
2022-08-02T02:00:11.917Z,45.97
2022-08-02T02:02:44.298Z,46.16
2022-08-02T02:05:17.233Z,46.11
2022-08-02T02:07:46.195Z,46.06
2022-08-02T02:10:16.068Z,46.23
2022-08-02T02:12:44.808Z,46.30
2022-08-02T02:15:12.675Z,46.51
2022-08-02T02:17:50.681Z,46.59
2022-08-02T02:20:32.982Z,46.51
2022-08-02T02:23:00.784Z,46.68
2022-08-02T02:25:34.257Z,46.69
2022-08-02T02:28:07.209Z,46.71
2022-08-02T02:30:35.613Z,46.63
2022-08-02T02:33:04.507Z,46.91
2022-08-02T02:35:34.206Z,47.01
2022-08-02T02:38:04.438Z,47.28
2022-08-02T02:40:33.001Z,47.15
2022-08-02T02:43:01.738Z,47.58
2022-08-02T02:45:30.887Z,47.32
2022-08-02T02:47:59.781Z,47.06
2022-08-02T02:50:28.170Z,47.40
2022-08-02T02:52:56.061Z,47.28
2022-08-02T02:55:24.568Z,47.75
2022-08-02T02:57:52.168Z,47.31
2022-08-02T03:00:39.727Z,48.21
2022-08-02T03:03:07.884Z,47.97
2022-08-02T03:05:35.406Z,47.85
2022-08-02T03:08:02.982Z,47.62
2022-08-02T03:10:30.831Z,47.77
2022-08-02T03:12:58.625Z,47.97
2022-08-02T03:15:27.647Z,47.73
2022-08-02T03:17:55.390Z,47.84
2022-08-02T03:20:22.955Z,48.09
2022-08-02T03:22:50.495Z,47.88
2022-08-02T03:25:18.858Z,47.86
2022-08-02T03:27:47.066Z,48.22
2022-08-02T03:30:15.030Z,48.12
2022-08-02T03:32:45.445Z,48.06
2022-08-02T03:35:18.574Z,48.50
2022-08-02T03:37:52.803Z,48.24
2022-08-02T03:40:20.998Z,48.27
2022-08-02T03:42:49.563Z,48.62
2022-08-02T03:45:17.549Z,49.30
2022-08-02T03:47:45.166Z,48.63
2022-08-02T03:50:13.555Z,48.39
2022-08-02T03:52:43.098Z,48.59
2022-08-02T03:55:11.945Z,49.03
2022-08-02T03:57:41.279Z,48.78
2022-08-02T04:00:10.524Z,48.82
2022-08-02T04:02:39.839Z,48.66
2022-08-02T04:05:07.886Z,48.53
2022-08-02T04:08:32.703Z,48.40
2022-08-02T04:10:23.259Z,48.46
2022-08-02T04:12:50.816Z,48.16
2022-08-02T04:15:18.726Z,48.26
2022-08-02T04:17:50.989Z,48.18
2022-08-02T04:20:20.358Z,48.49
2022-08-02T04:22:52.981Z,48.82
2022-08-02T04:25:20.882Z,48.27
2022-08-02T04:28:16.871Z,48.34
2022-08-02T04:30:47.400Z,48.60
2022-08-02T04:33:15.621Z,48.30
2022-08-02T04:35:44.504Z,48.07
2022-08-02T04:38:15.823Z,47.91
2022-08-02T04:40:55.327Z,47.81
2022-08-02T04:43:23.624Z,47.17
2022-08-02T04:45:55.610Z,46.95
2022-08-02T04:48:23.725Z,46.78
2022-08-02T04:50:51.601Z,46.58
2022-08-02T04:53:19.171Z,46.65
2022-08-02T04:55:46.939Z,46.61
2022-08-02T04:58:38.694Z,46.53
2022-08-02T05:01:02.629Z,46.27
2022-08-02T05:03:30.493Z,46.22
2022-08-02T05:05:58.506Z,46.28
2022-08-02T05:08:26.045Z,45.99
2022-08-02T05:10:53.828Z,46.11
2022-08-02T05:13:21.382Z,45.82
2022-08-02T05:15:50.530Z,45.95
2022-08-02T05:18:18.681Z,46.10
2022-08-02T05:20:46.224Z,46.01
2022-08-02T05:23:13.696Z,45.72
2022-08-02T05:25:41.549Z,45.80
2022-08-02T05:28:11.646Z,45.89
2022-08-02T05:30:40.265Z,45.04
2022-08-02T05:33:08.216Z,45.10
2022-08-02T05:35:35.847Z,44.75
2022-08-02T05:38:03.532Z,44.43
2022-08-02T05:40:31.677Z,44.43
2022-08-02T05:42:59.296Z,43.81
2022-08-02T05:45:27.014Z,44.14
2022-08-02T05:47:54.789Z,43.79
2022-08-02T05:50:24.458Z,43.78
2022-08-02T05:53:05.106Z,43.88
2022-08-02T05:55:48.317Z,43.26
2022-08-02T05:58:36.794Z,43.12
2022-08-02T06:01:05.631Z,42.75
2022-08-02T06:03:40.165Z,42.67
2022-08-02T06:06:16.227Z,42.25
2022-08-02T06:08:48.066Z,42.03
2022-08-02T06:11:18.469Z,42.77
2022-08-02T06:13:46.502Z,42.23
2022-08-02T06:16:14.994Z,42.57
2022-08-02T06:18:43.566Z,41.64
2022-08-02T06:22:33.796Z,41.60
2022-08-02T06:24:02.744Z,42.05
2022-08-02T06:26:30.554Z,41.61
2022-08-02T06:28:58.491Z,41.54
2022-08-02T06:31:26.080Z,41.22
2022-08-02T06:33:53.826Z,41.53
2022-08-02T06:36:44.693Z,41.06
2022-08-02T06:39:25.516Z,40.74
2022-08-02T06:41:57.294Z,40.42
2022-08-02T06:44:47.951Z,40.37
2022-08-02T06:47:13.880Z,41.44
2022-08-02T06:49:53.043Z,40.36
2022-08-02T06:52:28.152Z,40.40
2022-08-02T06:55:01.520Z,40.05
2022-08-02T06:57:30.349Z,40.05
2022-08-02T07:00:01.619Z,39.70
2022-08-02T07:02:30.946Z,40.01
2022-08-02T07:04:59.184Z,39.71
2022-08-02T07:07:27.676Z,39.60
2022-08-02T07:09:57.201Z,39.74
2022-08-02T07:12:32.508Z,39.02
2022-08-02T07:15:01.466Z,39.92
2022-08-02T07:17:29.896Z,39.26
2022-08-02T07:19:58.381Z,39.48
2022-08-02T07:22:27.192Z,39.60
2022-08-02T07:24:58.163Z,40.39
2022-08-02T07:27:26.480Z,39.66
2022-08-02T07:29:54.544Z,38.87
2022-08-02T07:32:25.735Z,39.41
2022-08-02T07:34:55.213Z,38.57
2022-08-02T07:37:53.027Z,39.35
2022-08-02T07:40:15.275Z,39.39
2022-08-02T07:42:51.999Z,39.55
2022-08-02T07:45:20.984Z,37.94
2022-08-02T07:47:49.305Z,37.48
2022-08-02T07:50:18.948Z,37.71
2022-08-02T07:52:47.370Z,37.18
2022-08-02T07:55:16.142Z,37.71
2022-08-02T07:57:46.705Z,38.02
2022-08-02T08:00:18.746Z,38.59
2022-08-02T08:02:47.158Z,38.76
2022-08-02T08:05:14.976Z,37.70
2022-08-02T08:07:42.639Z,37.88
2022-08-02T08:10:10.734Z,37.63
2022-08-02T08:12:38.418Z,37.64
2022-08-02T08:15:06.365Z,37.08
2022-08-02T08:17:35.096Z,36.67
2022-08-02T08:20:03.865Z,36.73
2022-08-02T08:22:31.435Z,37.12
2022-08-02T08:24:59.295Z,36.07
2022-08-02T08:27:26.898Z,36.28
2022-08-02T08:29:54.391Z,34.98
2022-08-02T08:32:22.330Z,36.11
2022-08-02T08:34:51.339Z,36.59
2022-08-02T08:37:19.519Z,36.43
2022-08-02T08:39:57.211Z,35.73
2022-08-02T08:42:31.130Z,34.58
2022-08-02T08:44:59.933Z,34.06
2022-08-02T08:47:40.588Z,34.50
2022-08-02T08:50:17.093Z,34.71
2022-08-02T08:52:53.632Z,34.80
2022-08-02T08:55:24.350Z,34.22
2022-08-02T08:57:52.887Z,34.11
2022-08-02T09:00:21.295Z,33.11
2022-08-02T09:02:49.895Z,33.28
2022-08-02T09:05:18.004Z,31.92
2022-08-02T09:07:48.697Z,31.67
2022-08-02T09:10:32.107Z,31.89
2022-08-02T09:13:44.381Z,31.51
2022-08-02T09:16:11.600Z,30.49
2022-08-02T09:18:46.913Z,31.17
2022-08-02T09:21:16.734Z,30.51
2022-08-02T09:23:46.487Z,30.52
2022-08-02T09:26:16.196Z,30.55
2022-08-02T09:28:46.586Z,30.19
2022-08-02T09:31:22.385Z,30.16
2022-08-02T09:34:00.687Z,29.94
2022-08-02T09:36:38.209Z,30.53
2022-08-02T09:39:09.759Z,29.21
2022-08-02T09:41:41.283Z,29.82
2022-08-02T09:44:14.109Z,30.13
2022-08-02T09:46:45.784Z,30.64
2022-08-02T09:49:18.498Z,30.70
2022-08-02T09:51:49.605Z,30.69
2022-08-02T09:54:19.582Z,30.97
2022-08-02T09:56:55.337Z,30.99
2022-08-02T09:59:26.680Z,30.28
2022-08-02T10:02:01.655Z,30.55
2022-08-02T10:04:34.051Z,30.05
2022-08-02T10:07:06.819Z,29.88
2022-08-02T10:09:34.649Z,30.26
2022-08-02T10:12:03.449Z,31.10
2022-08-02T10:14:33.996Z,30.75
2022-08-02T10:17:01.915Z,30.58
2022-08-02T10:20:00.646Z,29.42
2022-08-02T10:22:19.718Z,29.80
2022-08-02T10:24:48.875Z,30.38
2022-08-02T10:27:21.044Z,31.03
2022-08-02T10:29:54.925Z,31.28
2022-08-02T10:32:43.443Z,30.09
2022-08-02T10:35:18.897Z,30.37
2022-08-02T10:38:01.241Z,30.84
2022-08-02T10:40:50.308Z,30.74
2022-08-02T10:43:36.536Z,29.39
2022-08-02T10:46:33.268Z,29.74
2022-08-02T10:52:02.313Z,29.92
2022-08-02T10:54:41.573Z,30.39
2022-08-02T10:57:25.959Z,29.63
2022-08-02T11:00:19.292Z,29.43
2022-08-02T11:02:53.412Z,29.55
2022-08-02T11:05:43.411Z,30.33
2022-08-02T11:08:19.708Z,31.13
2022-08-02T11:10:47.833Z,31.43
2022-08-02T11:13:17.415Z,30.85
2022-08-02T11:15:57.314Z,30.02
2022-08-02T11:18:50.934Z,31.45
2022-08-02T11:21:23.215Z,31.95
2022-08-02T11:23:52.142Z,32.08
2022-08-02T11:26:31.612Z,32.67
2022-08-02T11:29:04.256Z,33.39
2022-08-02T11:31:42.889Z,32.34
2022-08-02T11:34:11.558Z,32.17
2022-08-02T11:36:59.977Z,31.49
2022-08-02T11:39:27.859Z,31.41
2022-08-02T11:42:00.879Z,30.64
2022-08-02T11:44:30.324Z,30.46
2022-08-02T11:47:01.920Z,31.03
2022-08-02T11:49:30.156Z,30.41
2022-08-02T11:52:05.647Z,30.58
2022-08-02T11:54:35.398Z,31.12
2022-08-02T11:57:22.607Z,32.05
2022-08-02T11:59:52.429Z,33.10
2022-08-02T12:02:25.958Z,33.87
2022-08-02T12:04:59.496Z,33.26
2022-08-02T12:07:34.610Z,31.91
2022-08-02T12:10:22.665Z,31.75
2022-08-02T12:12:58.724Z,32.25
2022-08-02T12:15:36.674Z,31.22
2022-08-02T12:18:27.444Z,30.68
2022-08-02T12:20:55.504Z,31.42
2022-08-02T12:23:23.519Z,31.45
2022-08-02T12:26:07.446Z,31.20
2022-08-02T12:28:39.163Z,32.23
2022-08-02T12:31:10.642Z,31.92
2022-08-02T12:33:49.011Z,31.19
2022-08-02T12:36:18.590Z,30.62
2022-08-02T12:39:00.096Z,30.10
2022-08-02T12:41:31.266Z,30.76
2022-08-02T12:44:00.974Z,30.05
2022-08-02T12:46:29.158Z,28.43
2022-08-02T12:49:16.814Z,28.54
2022-08-02T12:51:55.711Z,28.63
2022-08-02T12:54:31.198Z,28.34
2022-08-02T12:57:19.264Z,27.55
2022-08-02T12:59:53.890Z,26.33
2022-08-02T13:02:21.981Z,26.38
2022-08-02T13:04:50.702Z,26.59
2022-08-02T13:07:19.279Z,27.05
2022-08-02T13:09:48.391Z,27.06
2022-08-02T13:12:17.062Z,26.83
2022-08-02T13:14:44.922Z,26.02
2022-08-02T13:17:12.776Z,26.36
2022-08-02T13:19:42.320Z,26.96
2022-08-02T13:22:11.266Z,26.30
2022-08-02T13:24:56.710Z,26.70
2022-08-02T13:27:26.099Z,27.13
2022-08-02T13:29:55.716Z,26.42
2022-08-02T13:32:24.031Z,25.55
2022-08-02T13:34:52.002Z,25.76
2022-08-02T13:37:19.817Z,25.87
2022-08-02T13:40:00.485Z,26.39
2022-08-02T13:42:33.811Z,26.93
2022-08-02T13:45:12.089Z,26.39
2022-08-02T13:48:03.309Z,27.41
2022-08-02T13:50:30.529Z,26.23
2022-08-02T13:52:58.339Z,26.72
2022-08-02T13:55:26.188Z,26.71
2022-08-02T13:57:54.467Z,26.50
2022-08-02T14:00:34.643Z,26.45
2022-08-02T14:03:07.885Z,26.42
2022-08-02T14:05:48.303Z,26.54
2022-08-02T14:08:22.880Z,26.14
2022-08-02T14:10:51.405Z,25.61
2022-08-02T14:13:19.875Z,25.63
2022-08-02T14:15:47.660Z,25.61
2022-08-02T14:18:15.521Z,25.31
2022-08-02T14:20:45.256Z,25.73
2022-08-02T14:23:13.071Z,26.42
2022-08-02T14:25:41.054Z,26.77
2022-08-02T14:28:09.133Z,26.53
2022-08-02T14:30:36.738Z,26.13
2022-08-02T14:33:04.317Z,25.49
2022-08-02T14:35:32.266Z,26.33
2022-08-02T14:37:59.883Z,25.96
2022-08-02T14:40:31.161Z,24.60
2022-08-02T14:43:01.017Z,25.75
2022-08-02T14:45:41.107Z,25.72
2022-08-02T14:48:11.371Z,25.81
2022-08-02T14:50:39.207Z,25.16
2022-08-02T14:53:06.743Z,25.94
2022-08-02T14:55:41.931Z,25.90
2022-08-02T14:58:11.050Z,25.63
2022-08-02T15:00:40.848Z,26.00
2022-08-02T15:03:10.676Z,25.57
2022-08-02T15:05:39.058Z,26.12
2022-08-02T15:08:06.840Z,26.00
2022-08-02T15:10:34.652Z,26.54
2022-08-02T15:13:02.173Z,27.20
2022-08-02T15:15:29.774Z,26.57
2022-08-02T15:17:57.853Z,26.86
2022-08-02T15:20:28.392Z,26.25
2022-08-02T15:22:55.945Z,26.92
2022-08-02T15:25:23.935Z,27.42
2022-08-02T15:27:51.503Z,27.36
2022-08-02T15:30:19.446Z,27.54
2022-08-02T15:32:53.318Z,27.38
2022-08-02T15:35:21.717Z,27.48
2022-08-02T15:37:49.686Z,26.78
2022-08-02T15:40:17.562Z,27.14
2022-08-02T15:42:45.244Z,27.07
2022-08-02T15:45:15.589Z,27.06
2022-08-02T15:47:48.118Z,26.27
2022-08-02T15:50:18.962Z,26.41
2022-08-02T15:52:46.937Z,25.76
2022-08-02T15:55:14.677Z,25.73
2022-08-02T15:57:42.477Z,26.11
2022-08-02T16:00:17.955Z,25.63
2022-08-02T16:02:47.606Z,25.43
2022-08-02T16:05:18.061Z,25.64
2022-08-02T16:07:46.403Z,25.56
2022-08-02T16:10:15.493Z,25.29
2022-08-02T16:12:43.372Z,25.79
2022-08-02T16:15:12.524Z,25.66
2022-08-02T16:17:51.670Z,26.39
2022-08-02T16:20:23.439Z,26.85
2022-08-02T16:22:51.201Z,26.42
2022-08-02T16:25:18.783Z,25.70
2022-08-02T16:27:59.460Z,25.95
2022-08-02T16:30:34.307Z,26.19
2022-08-02T16:33:02.221Z,25.95
2022-08-02T16:35:29.778Z,25.48
2022-08-02T16:37:57.615Z,25.87
2022-08-02T16:40:25.241Z,26.03
2022-08-02T16:42:52.781Z,26.02
2022-08-02T16:45:21.366Z,25.76
2022-08-02T16:47:56.153Z,25.10
2022-08-02T16:50:28.064Z,24.71
2022-08-02T16:52:57.863Z,25.37
2022-08-02T16:55:29.204Z,25.42
2022-08-02T16:58:00.498Z,25.29
2022-08-02T17:00:29.080Z,25.44
2022-08-02T17:02:59.404Z,25.83
2022-08-02T17:05:37.628Z,25.92
2022-08-02T17:10:53.647Z,26.26
2022-08-02T17:13:21.800Z,26.98
2022-08-02T17:16:15.928Z,27.07
2022-08-02T17:18:42.678Z,27.71
2022-08-02T17:21:10.980Z,27.50
2022-08-02T17:24:06.156Z,27.91
2022-08-02T17:26:26.439Z,28.26
2022-08-02T17:29:16.346Z,27.59
2022-08-02T17:32:05.281Z,28.01
2022-08-02T17:34:35.270Z,27.89
2022-08-02T17:37:05.872Z,26.83
2022-08-02T17:39:44.066Z,27.59
2022-08-02T17:42:20.200Z,27.74
2022-08-02T17:45:00.944Z,26.78
2022-08-02T17:47:43.283Z,27.15
2022-08-02T17:50:31.313Z,26.82
2022-08-02T17:52:59.477Z,26.42
2022-08-02T17:55:27.214Z,26.93
2022-08-02T17:57:59.690Z,26.22
2022-08-02T18:00:37.916Z,25.99
2022-08-02T18:03:07.888Z,26.05
2022-08-02T18:05:41.950Z,25.68
2022-08-02T18:08:23.638Z,25.68
2022-08-02T18:10:55.808Z,25.45
2022-08-02T18:13:24.559Z,25.28
2022-08-02T18:15:59.083Z,25.24
2022-08-02T18:18:29.671Z,25.83
2022-08-02T18:20:58.837Z,25.48
2022-08-02T18:23:48.656Z,25.51
2022-08-02T18:26:17.990Z,25.30
2022-08-02T18:28:49.216Z,25.62
2022-08-02T18:31:22.893Z,25.62
2022-08-02T18:33:58.936Z,25.95
2022-08-02T18:36:30.142Z,25.72
2022-08-02T18:38:58.491Z,26.02
2022-08-02T18:41:26.300Z,26.05
2022-08-02T18:43:57.196Z,26.07
2022-08-02T18:46:30.056Z,26.27
2022-08-02T18:49:06.632Z,26.26
2022-08-02T18:51:43.083Z,26.82
2022-08-02T18:54:11.137Z,26.99
2022-08-02T18:56:38.915Z,27.38
2022-08-02T18:59:07.638Z,28.18
2022-08-02T19:01:43.609Z,28.62
2022-08-02T19:04:27.494Z,28.38
2022-08-02T19:09:44.832Z,28.47
2022-08-02T19:12:14.976Z,29.62
2022-08-02T19:14:43.829Z,29.42
2022-08-02T19:17:54.569Z,29.70
2022-08-02T19:19:59.330Z,29.25
2022-08-02T19:22:27.418Z,29.38
2022-08-02T19:24:59.106Z,29.08
2022-08-02T19:27:32.670Z,28.82
2022-08-02T19:30:02.373Z,28.94
2022-08-02T19:32:42.116Z,29.66
2022-08-02T19:35:30.495Z,30.53
2022-08-02T19:38:09.495Z,30.12
2022-08-02T19:40:38.914Z,30.47
2022-08-02T19:44:24.725Z,30.25
2022-08-02T19:45:57.796Z,30.35
2022-08-02T19:48:27.234Z,30.57
2022-08-02T19:51:01.232Z,30.73
2022-08-02T19:53:47.520Z,31.05
2022-08-02T19:56:20.728Z,31.04
2022-08-02T19:58:51.473Z,31.35
2022-08-02T20:01:25.407Z,31.80
2022-08-02T20:04:07.239Z,32.06
2022-08-02T20:06:34.770Z,31.42
2022-08-02T20:09:03.905Z,31.46
2022-08-02T20:11:34.826Z,31.58
2022-08-02T20:14:06.828Z,31.68
2022-08-02T20:16:35.441Z,31.80
2022-08-02T20:19:05.166Z,31.52
2022-08-02T20:21:36.448Z,31.75
2022-08-02T20:24:06.769Z,32.54
2022-08-02T20:26:35.404Z,31.97
2022-08-02T20:29:04.236Z,32.26
2022-08-02T20:31:32.033Z,32.28
2022-08-02T20:33:59.617Z,31.98
2022-08-02T20:36:27.505Z,32.19
2022-08-02T20:38:55.580Z,32.77
2022-08-02T20:41:23.807Z,32.36
2022-08-02T20:44:05.310Z,32.50
2022-08-02T20:46:44.551Z,32.82
2022-08-02T20:49:23.103Z,33.19
2022-08-02T20:52:02.040Z,32.83
2022-08-02T20:54:29.982Z,32.97
2022-08-02T20:56:57.487Z,32.70
2022-08-02T20:59:24.985Z,32.60
2022-08-02T21:04:41.495Z,33.94
2022-08-02T21:07:13.016Z,33.31
2022-08-02T21:09:52.651Z,32.97
2022-08-02T21:12:30.155Z,33.11
2022-08-02T21:14:59.410Z,33.50
2022-08-02T21:17:41.998Z,33.10
2022-08-02T21:20:16.914Z,33.35
2022-08-02T21:22:44.878Z,33.36
2022-08-02T21:25:15.789Z,33.31
2022-08-02T21:27:53.447Z,33.51
2022-08-02T21:30:24.316Z,33.59
2022-08-02T21:33:22.436Z,33.91
2022-08-02T21:35:52.549Z,33.52
2022-08-02T21:38:36.481Z,33.69
2022-08-02T21:41:06.208Z,34.07
2022-08-02T21:43:40.374Z,33.90
2022-08-02T21:46:11.642Z,34.25
2022-08-02T21:48:42.280Z,34.26
2022-08-02T21:51:09.744Z,34.52
2022-08-02T21:53:44.045Z,34.31
2022-08-02T21:56:31.572Z,34.65
2022-08-02T21:58:59.844Z,35.08
2022-08-02T22:01:29.775Z,35.17
2022-08-02T22:03:58.633Z,35.80
2022-08-02T22:06:26.207Z,35.46
2022-08-02T22:08:55.098Z,35.13
2022-08-02T22:11:22.994Z,35.41
2022-08-02T22:13:50.887Z,35.46
2022-08-02T22:16:19.167Z,35.24
2022-08-02T22:18:51.313Z,35.55
2022-08-02T22:21:19.969Z,35.65
2022-08-02T22:23:51.238Z,35.48
2022-08-02T22:26:19.599Z,36.40
2022-08-02T22:28:51.766Z,36.82
2022-08-02T22:31:40.635Z,36.62
2022-08-02T22:34:26.751Z,36.50
2022-08-02T22:36:56.394Z,36.62
2022-08-02T22:39:23.874Z,37.04
2022-08-02T22:42:02.164Z,37.15
2022-08-02T22:44:35.654Z,37.31
2022-08-02T22:47:13.762Z,37.17
2022-08-02T22:49:51.649Z,37.33
2022-08-02T22:52:22.211Z,38.30
2022-08-02T22:54:50.781Z,38.21
2022-08-02T22:57:30.709Z,38.68
2022-08-02T22:58:46.794Z,28.16
2022-08-02T22:58:48.693Z,26.35
2022-08-02T22:58:56.833Z,33.10
2022-08-02T23:00:00.115Z,38.47
2022-08-02T23:02:27.683Z,38.89
2022-08-02T23:04:55.272Z,38.75
2022-08-02T23:07:23.013Z,38.93
2022-08-02T23:09:50.472Z,39.28
2022-08-02T23:12:19.862Z,39.41
2022-08-02T23:14:48.468Z,39.20
2022-08-02T23:17:38.328Z,39.49
2022-08-02T23:20:07.427Z,39.50
2022-08-02T23:22:34.976Z,39.54
2022-08-02T23:25:03.381Z,39.35
2022-08-02T23:27:32.305Z,39.61
2022-08-02T23:30:00.530Z,40.43
2022-08-02T23:32:28.890Z,40.15
2022-08-02T23:34:57.386Z,40.03
2022-08-02T23:37:25.174Z,39.89
2022-08-02T23:39:52.687Z,39.81
2022-08-02T23:42:20.532Z,40.17
2022-08-02T23:44:48.112Z,40.45
2022-08-02T23:47:17.000Z,40.91
2022-08-02T23:49:44.986Z,40.53
2022-08-02T23:52:13.061Z,40.38
2022-08-02T23:54:40.710Z,40.22
2022-08-02T23:57:20.688Z,40.50
2022-08-02T23:59:50.730Z,41.05
